Share

Statesboro, GA

2:28 AM EDT on April 25, 2014 (GMT -0400)
Statesboro-Bulloch County (KTBR) Elev 187 ft | 32.48 °N, 81.74 °W | Change Station
Active Advisory: Flood Warning

Current weather conditions updated 13 minutes ago

Clear
Clear
62 °F
Feels Like 62 °F
N
0
Wind Variable Wind from North
Sunrise 6:46 AM
Sunset 8:04 PM
Moon Waning Crescent

Today is forecast to be nearly the same temperature as yesterday.

Pressure 29.92 in
Visibility 7.0 miles
Clouds Clear
Dew Point 62 °F
Humidity 100%
Rainfall 0.00 in
Snow Depth Not available.
UV 0 out of 16
Pollen 7.80 out of 12
Air Quality Not available.
Flu Activity Sporadic
METAR KTBR 250615Z AUTO 00000KT 7SM CLR 17/17 A2992 RMK AO2 T01670167

More Conditions Fewer Conditions

Pressure 29.92 in
Visibility 7.0 miles
Clouds Clear
Dew Point 62 °F
Humidity 100%
Rainfall 0.00 in
Snow Depth Not available.
UV 0 out of 16
Pollen 7.80 out of 12
Air Quality Not available.
Flu Activity Sporadic
METAR KTBR 250615Z AUTO 00000KT 7SM CLR 17/17 A2992 RMK AO2 T01670167

More Conditions Fewer Conditions

10-Day Weather Forecast

Almanac

Astronomy

Apr. 25, 2014 Rise Set
Actual Time 6:46 AM EDT 8:04 PM EDT
Civil Twilight 6:20 AM EDT 8:29 PM EDT
Nautical Twilight 5:50 AM EDT 9:00 PM EDT
Astronomical Twilight 5:18 AM EDT 9:32 PM EDT
Moon 4:20 AM EDT 4:36 PM EDT
Length of Visible Light 14h 08m
Length of Day
13h 17m
Tomorrow will be 1m 46s longer.
Waning Crescent, 19% of the Moon is Illuminated
Today
Waning Crescent
Apr 29
New
May 6
First Quarter
May 14
Full
May 21
Last Quarter

Today's Extremes

State Highs State Lows

Community

  • Deer in evening light
    Deer in evening light
  • Critter
    Critter
  • Jone Runs Falls
    Jone Runs Falls
  • Easter in Shenandoah National Park
    Easter in Shenandoah National Park
  • Sunset at Apalachicola Bay, Florida
    Sunset at Apalachicola Bay, Florida

WunderPhotos

Upload Photos

1,704,867 photos uploaded!

WunderBlogs® & News

Nearby

Snow Depth

Station Depth Elevation
No new snow has been reported.

Coastal Water Temperatures

Place Temperature
No Stations Reporting

Earthquake Activity

City Distance Mag. Time & Date
No recent earthquake activity has been reported nearby.
Minimum magnitude displayed is 2.5.

Nearby Weather Stations

Station Location Temp. Dew Point Humidity Wind Precip. Elev Updated Type
RAWS METTER GA, Metter, GA 63 °F 62 °F 96% SE  at  2 mph 0.00 in / hr 198 ft 2:03 AM EDT MADIS
Hope Street, Metter, GA 63.3 °F 61 °F 92% South  at  0.0 mph 0.00 in / hr 211 ft 2:27 AM EDT Rapid Fire
Georgia Gold, Pembroke, GA 61.0 °F 61 °F 100% ESE  at  1.0 mph 0.00 in / hr 93 ft 2:25 AM EDT Normal
Stilson-Ellabell, Brooklet, GA 61.6 °F 55 °F 79% ESE  at  0.0 mph 0.00 in / hr 95 ft 2:27 AM EDT Normal

Show More Stations Show Fewer Stations

What do you think?

We're not finished. Please let us know what you like, what you don't like, and what you are still missing.